Portada
METAR-TAF:

METAR-TAF

Aeroports :

Managua, Nicaragua

latitud: 12-09N, longitud: 086-10W, altitud: 50 m

Observació

L'informe es va fer fa 1 hora i 9 minuts, a les 10:00 UTC
Vent calma
Temperatura 24°C
Humitat 83%
Pressió 1012 hPa
Visibilitat 10 km o més
Escasses núvols a una alçada de 2100 ft
Núvols disperses a una alçada de 30000 ft

METAR: MNMG 231000Z 00000KT 9999 FEW021 SCT300 24/21 Q1011 A2988 NOSIG

Hora: 05:09 (11:09 UTC)

Pronòstic

L'informe es va fer fa 7 hores i 5 minuts, a les 04:04 UTC
Pronòstic vàlid del 23 a les 06 UTC al 24 a les 06 UTC
Vent 6 kt del Est/Sud-Est
Visibilitat 10 km o més
Escasses núvols a una alçada de 2200 ft
Núvols disperses a una alçada de 30000 ft
Evolucionant progressivament
l' 23 a les 14 UTC al 23 a les 16 UTC
Vent 12 kt del Est
Núvols disperses a una alçada de 2200 ft

TAF: MNMG 230404Z 2306/2406 12006KT 9999 FEW022 SCT300 BECMG 2314/2316 08012KT SCT022

Observacions i pronòstics meteorològics de més de 4000 aeroports (METAR i TAF).

Les estacions disponibles són els punts grocs i vermells al mapa.

Posi el ratolí al punt desitjat per veure el nom de l'estació.

Feu clic per veure les observacions i els pronòstics meteorològics.

Per canviar el mapa: feu clic els botons verds amb una creu de color negre per apropar; al botó verd amb un guió per allunyar la imatge; o en les fletxes verdes per a mapes adjacents.


METAR-TAF: